createdAt,value
2023-01-08T00:01:17.400Z,3.90
2023-01-08T00:03:45.206Z,3.89
2023-01-08T00:06:15.283Z,3.87
2023-01-08T00:08:43.149Z,3.77
2023-01-08T00:11:11.999Z,3.83
2023-01-08T00:13:39.207Z,3.76
2023-01-08T00:16:09.214Z,3.76
2023-01-08T00:18:36.265Z,3.70
2023-01-08T00:21:04.132Z,3.77
2023-01-08T00:23:31.039Z,3.72
2023-01-08T00:26:01.725Z,3.72
2023-01-08T00:28:28.861Z,3.68
2023-01-08T00:30:56.034Z,3.68
2023-01-08T00:33:23.064Z,3.63
2023-01-08T00:35:49.978Z,3.53
2023-01-08T00:38:16.970Z,3.54
2023-01-08T00:40:43.981Z,3.39
2023-01-08T00:43:11.107Z,3.60
2023-01-08T00:45:38.321Z,3.57
2023-01-08T00:48:06.266Z,3.50
2023-01-08T00:50:33.125Z,3.50
2023-01-08T00:53:00.929Z,3.49
2023-01-08T00:55:27.825Z,3.36
2023-01-08T00:58:13.817Z,3.46
2023-01-08T01:00:41.604Z,3.48
2023-01-08T01:03:08.506Z,3.36
2023-01-08T01:05:35.634Z,3.31
2023-01-08T01:08:02.507Z,3.42
2023-01-08T01:10:30.588Z,3.33
2023-01-08T01:12:57.422Z,3.39
2023-01-08T01:15:24.387Z,3.39
2023-01-08T01:17:51.333Z,3.35
2023-01-08T01:20:18.277Z,3.26
2023-01-08T01:22:45.209Z,2.86
2023-01-08T01:25:12.224Z,3.03
2023-01-08T01:27:39.428Z,3.27
2023-01-08T01:30:07.328Z,3.26
2023-01-08T01:32:34.574Z,3.30
2023-01-08T01:35:02.045Z,3.25
2023-01-08T01:37:30.234Z,3.28
2023-01-08T01:39:58.157Z,3.28
2023-01-08T01:42:40.270Z,3.28
2023-01-08T01:45:26.388Z,3.26
2023-01-08T01:47:59.526Z,3.22
2023-01-08T01:50:48.888Z,3.08
2023-01-08T01:53:19.392Z,3.19
2023-01-08T01:55:47.884Z,2.81
2023-01-08T01:58:20.784Z,3.09
2023-01-08T02:00:48.173Z,3.08
2023-01-08T02:03:16.444Z,3.07
2023-01-08T02:06:08.362Z,3.08
2023-01-08T02:08:52.179Z,2.97
2023-01-08T02:11:30.495Z,3.01
2023-01-08T02:14:11.781Z,2.98
2023-01-08T02:17:05.339Z,3.01
2023-01-08T02:19:48.662Z,2.87
2023-01-08T02:22:46.407Z,2.97
2023-01-08T02:25:41.027Z,2.96
2023-01-08T02:28:14.121Z,2.95
2023-01-08T02:30:42.188Z,2.94
2023-01-08T02:33:09.090Z,2.82
2023-01-08T02:35:40.579Z,2.82
2023-01-08T02:38:12.861Z,2.88
2023-01-08T02:40:50.508Z,2.86
2023-01-08T02:43:26.231Z,2.84
2023-01-08T02:46:00.489Z,2.80
2023-01-08T02:48:41.952Z,2.81
2023-01-08T02:51:32.922Z,2.81
2023-01-08T02:54:04.720Z,2.76
2023-01-08T02:56:36.758Z,2.78
2023-01-08T02:59:07.484Z,2.79
2023-01-08T03:01:35.395Z,2.77
2023-01-08T03:04:08.050Z,2.74
2023-01-08T03:06:35.418Z,2.77
2023-01-08T03:09:02.374Z,2.78
2023-01-08T03:11:35.057Z,2.66
2023-01-08T03:14:09.658Z,2.69
2023-01-08T03:16:52.377Z,2.62
2023-01-08T03:19:26.795Z,2.73
2023-01-08T03:21:54.652Z,2.70
2023-01-08T03:24:26.963Z,2.70
2023-01-08T03:26:57.631Z,2.65
2023-01-08T03:29:25.946Z,2.56
2023-01-08T03:31:58.776Z,2.62
2023-01-08T03:34:28.198Z,2.62
2023-01-08T03:36:58.758Z,2.65
2023-01-08T03:39:31.713Z,2.53
2023-01-08T03:42:02.717Z,2.55
2023-01-08T03:44:29.687Z,2.47
2023-01-08T03:46:58.410Z,2.61
2023-01-08T03:49:28.591Z,2.59
2023-01-08T03:51:55.825Z,2.42
2023-01-08T03:54:25.643Z,2.55
2023-01-08T03:56:52.516Z,2.44
2023-01-08T03:59:19.547Z,2.53
2023-01-08T04:01:46.533Z,2.49
2023-01-08T04:04:13.713Z,2.52
2023-01-08T04:06:40.973Z,2.38
2023-01-08T04:09:08.273Z,2.50
2023-01-08T04:11:35.166Z,2.47
2023-01-08T04:14:02.278Z,2.45
2023-01-08T04:16:29.131Z,2.44
2023-01-08T04:18:56.254Z,2.44
2023-01-08T04:21:23.140Z,2.46
2023-01-08T04:23:50.203Z,2.37
2023-01-08T04:26:17.023Z,2.36
2023-01-08T04:28:44.037Z,2.41
2023-01-08T04:31:10.904Z,2.34
2023-01-08T04:33:37.952Z,2.35
2023-01-08T04:36:05.629Z,2.35
2023-01-08T04:38:32.528Z,2.25
2023-01-08T04:41:01.387Z,2.26
2023-01-08T04:43:29.380Z,2.31
2023-01-08T04:46:04.497Z,2.24
2023-01-08T04:48:31.582Z,2.15
2023-01-08T04:51:00.277Z,2.22
2023-01-08T04:53:28.429Z,2.23
2023-01-08T04:55:55.527Z,2.23
2023-01-08T04:58:22.396Z,2.23
2023-01-08T05:00:49.351Z,2.20
2023-01-08T05:03:16.234Z,2.20
2023-01-08T05:05:43.143Z,2.16
2023-01-08T05:08:10.005Z,2.20
2023-01-08T05:10:36.872Z,2.21
2023-01-08T05:13:03.849Z,2.16
2023-01-08T05:15:30.754Z,2.18
2023-01-08T05:18:02.452Z,1.79
2023-01-08T05:20:29.711Z,2.13
2023-01-08T05:22:58.497Z,2.09
2023-01-08T05:25:25.888Z,2.00
2023-01-08T05:27:53.335Z,2.09
2023-01-08T05:30:20.259Z,2.07
2023-01-08T05:32:47.379Z,2.01
2023-01-08T05:35:14.287Z,1.97
2023-01-08T05:37:41.472Z,2.02
2023-01-08T05:40:08.982Z,2.02
2023-01-08T05:42:37.019Z,1.90
2023-01-08T05:45:05.110Z,2.00
2023-01-08T05:47:34.018Z,1.97
2023-01-08T05:50:01.320Z,1.88
2023-01-08T05:52:30.217Z,1.94
2023-01-08T05:54:57.122Z,1.97
2023-01-08T05:57:24.167Z,1.94
2023-01-08T05:59:51.067Z,1.96
2023-01-08T06:02:17.962Z,1.92
2023-01-08T06:04:45.151Z,1.98
2023-01-08T06:07:12.074Z,1.97
2023-01-08T06:09:39.213Z,1.93
2023-01-08T06:12:06.453Z,1.95
2023-01-08T06:14:35.008Z,1.78
2023-01-08T06:17:02.093Z,1.93
2023-01-08T06:19:29.152Z,1.89
2023-01-08T06:21:56.860Z,1.87
2023-01-08T06:24:25.164Z,1.89
2023-01-08T06:26:52.149Z,1.88
2023-01-08T06:29:19.125Z,1.89
2023-01-08T06:31:46.049Z,1.85
2023-01-08T06:34:13.245Z,1.94
2023-01-08T06:36:40.128Z,1.95
2023-01-08T06:39:08.051Z,1.93
2023-01-08T06:41:35.003Z,1.96
2023-01-08T06:44:01.928Z,1.97
2023-01-08T06:46:28.873Z,1.96
2023-01-08T06:48:55.904Z,1.85
2023-01-08T06:51:22.951Z,1.90
2023-01-08T06:53:50.602Z,1.88
2023-01-08T06:56:17.977Z,1.94
2023-01-08T06:58:44.925Z,1.94
2023-01-08T07:01:16.719Z,1.97
2023-01-08T07:03:44.726Z,1.98
2023-01-08T07:06:17.166Z,2.09
2023-01-08T07:08:45.074Z,2.12
2023-01-08T07:11:12.736Z,2.17
2023-01-08T07:13:40.348Z,2.19
2023-01-08T07:16:09.395Z,2.20
2023-01-08T07:18:36.964Z,2.20
2023-01-08T07:21:04.663Z,2.19
2023-01-08T07:23:32.177Z,2.03
2023-01-08T07:26:03.544Z,2.14
2023-01-08T07:28:31.152Z,2.22
2023-01-08T07:30:58.193Z,2.19
2023-01-08T07:33:25.211Z,2.26
2023-01-08T07:35:56.130Z,2.29
2023-01-08T07:38:23.639Z,2.08
2023-01-08T07:40:50.841Z,2.35
2023-01-08T07:43:17.701Z,2.38
2023-01-08T07:45:44.765Z,2.44
2023-01-08T07:48:15.747Z,2.46
2023-01-08T07:50:44.296Z,2.49
2023-01-08T07:53:13.105Z,2.46
2023-01-08T07:55:40.138Z,2.53
2023-01-08T07:58:11.935Z,2.54
2023-01-08T08:00:39.368Z,2.60
2023-01-08T08:03:08.315Z,2.63
2023-01-08T08:05:35.722Z,2.55
2023-01-08T08:08:08.388Z,2.60
2023-01-08T08:10:36.024Z,2.74
2023-01-08T08:13:03.161Z,2.80
2023-01-08T08:15:33.477Z,2.54
2023-01-08T08:18:00.439Z,2.85
2023-01-08T08:20:27.551Z,2.81
2023-01-08T08:23:05.043Z,2.87
2023-01-08T08:25:32.586Z,3.03
2023-01-08T08:28:01.429Z,3.11
2023-01-08T08:30:29.527Z,3.14
2023-01-08T08:33:00.837Z,3.16
2023-01-08T08:35:28.656Z,3.18
2023-01-08T08:37:57.001Z,3.21
2023-01-08T08:40:24.816Z,3.22
2023-01-08T08:43:03.374Z,3.33
2023-01-08T08:45:30.785Z,3.37
2023-01-08T08:47:57.638Z,3.38
2023-01-08T08:50:25.052Z,3.45
2023-01-08T08:52:51.917Z,3.25
2023-01-08T08:55:19.479Z,3.62
2023-01-08T08:57:47.816Z,3.65
2023-01-08T09:00:15.607Z,3.67
2023-01-08T09:02:42.890Z,3.73
2023-01-08T09:05:10.477Z,3.89
2023-01-08T09:07:38.010Z,3.89
2023-01-08T09:10:08.768Z,3.96
2023-01-08T09:12:35.841Z,4.05
2023-01-08T09:15:02.704Z,4.17
2023-01-08T09:17:30.212Z,4.27
2023-01-08T09:19:57.068Z,4.21
2023-01-08T09:22:24.724Z,4.39
2023-01-08T09:24:51.710Z,4.45
2023-01-08T09:27:18.741Z,4.43
2023-01-08T09:29:45.676Z,4.59
2023-01-08T09:32:12.729Z,4.54
2023-01-08T09:34:39.592Z,4.70
2023-01-08T09:37:08.194Z,4.81
2023-01-08T09:39:36.282Z,4.82
2023-01-08T09:42:05.833Z,4.93
2023-01-08T09:44:45.806Z,5.00
2023-01-08T09:47:31.410Z,5.02
2023-01-08T09:50:07.036Z,5.03
2023-01-08T09:52:34.214Z,5.14
2023-01-08T09:55:01.533Z,5.18
2023-01-08T09:57:30.480Z,5.32
2023-01-08T09:59:58.601Z,5.28
2023-01-08T10:02:26.697Z,5.30
2023-01-08T10:04:56.653Z,5.31
2023-01-08T10:07:26.210Z,5.48
2023-01-08T10:09:54.392Z,5.59
2023-01-08T10:12:30.872Z,5.62
2023-01-08T10:15:04.909Z,5.71
2023-01-08T10:17:38.628Z,5.70
2023-01-08T10:20:12.892Z,5.79
2023-01-08T10:22:40.740Z,5.86
2023-01-08T10:25:12.928Z,5.32
2023-01-08T10:28:06.185Z,5.98
2023-01-08T10:30:33.053Z,6.03
2023-01-08T10:33:10.424Z,5.98
2023-01-08T10:35:42.745Z,6.16
2023-01-08T10:38:27.106Z,6.09
2023-01-08T10:40:55.645Z,6.29
2023-01-08T10:43:31.357Z,6.24
2023-01-08T10:46:04.653Z,6.41
2023-01-08T10:48:49.738Z,6.48
2023-01-08T10:51:24.045Z,6.39
2023-01-08T10:54:15.493Z,6.11
2023-01-08T10:56:45.887Z,6.41
2023-01-08T10:59:23.645Z,6.55
2023-01-08T11:01:53.176Z,6.50
2023-01-08T11:04:29.641Z,6.59
2023-01-08T11:06:59.926Z,6.66
2023-01-08T11:09:31.071Z,6.73
2023-01-08T11:11:58.680Z,6.80
2023-01-08T11:14:30.159Z,6.86
2023-01-08T11:16:58.567Z,6.79
2023-01-08T11:19:30.301Z,6.89
2023-01-08T11:22:03.565Z,6.91
2023-01-08T11:24:38.039Z,7.05
2023-01-08T11:27:04.964Z,7.07
2023-01-08T11:29:55.561Z,7.10
2023-01-08T11:32:31.204Z,7.11
2023-01-08T11:35:19.403Z,7.27
2023-01-08T11:37:54.605Z,7.24
2023-01-08T11:40:29.579Z,7.28
2023-01-08T11:43:22.888Z,7.34
2023-01-08T11:45:58.812Z,7.34
2023-01-08T11:49:07.690Z,7.35
2023-01-08T11:52:02.427Z,7.42
2023-01-08T11:55:00.534Z,7.38
2023-01-08T11:57:39.536Z,7.42
2023-01-08T12:00:24.449Z,7.52
2023-01-08T12:02:56.259Z,7.31
2023-01-08T12:05:43.611Z,7.31
2023-01-08T12:08:38.623Z,7.35
2023-01-08T12:11:16.623Z,7.32
2023-01-08T12:13:50.939Z,7.44
2023-01-08T12:16:29.966Z,7.40
2023-01-08T12:18:59.833Z,7.46
2023-01-08T12:21:38.337Z,7.57
2023-01-08T12:24:40.945Z,7.68
2023-01-08T12:27:48.439Z,7.66
2023-01-08T12:30:40.236Z,7.68
2023-01-08T12:33:17.847Z,7.69
2023-01-08T12:35:54.697Z,7.79
2023-01-08T12:38:25.064Z,7.80
2023-01-08T12:40:58.661Z,7.72
2023-01-08T12:43:38.451Z,7.84
2023-01-08T12:46:06.425Z,7.78
2023-01-08T12:48:38.035Z,7.61
2023-01-08T12:51:06.916Z,7.80
2023-01-08T12:53:49.130Z,7.97
2023-01-08T12:56:22.067Z,7.98
2023-01-08T12:59:03.690Z,8.05
2023-01-08T13:02:05.047Z,8.21
2023-01-08T13:04:48.322Z,8.08
2023-01-08T13:07:26.552Z,8.04
2023-01-08T13:10:01.910Z,8.07
2023-01-08T13:12:39.717Z,8.15
2023-01-08T13:15:11.100Z,8.18
2023-01-08T13:17:51.362Z,8.15
2023-01-08T13:25:17.398Z,8.34
2023-01-08T13:27:46.282Z,8.35
2023-01-08T13:30:42.212Z,8.53
2023-01-08T13:33:39.720Z,8.62
2023-01-08T13:36:12.597Z,8.57
2023-01-08T13:38:43.876Z,8.55
2023-01-08T13:41:29.781Z,8.62
2023-01-08T13:44:06.315Z,8.62
2023-01-08T13:46:37.980Z,8.69
2023-01-08T13:49:17.159Z,8.65
2023-01-08T13:51:56.318Z,8.55
2023-01-08T13:54:38.160Z,8.70
2023-01-08T13:57:13.044Z,8.53
2023-01-08T13:59:44.191Z,8.67
2023-01-08T14:02:55.738Z,8.79
2023-01-08T14:05:29.677Z,8.83
2023-01-08T14:07:59.136Z,8.51
2023-01-08T14:10:29.012Z,8.70
2023-01-08T14:13:17.830Z,8.67
2023-01-08T14:15:45.106Z,8.74
2023-01-08T14:18:13.928Z,8.69
2023-01-08T14:20:44.870Z,8.73
2023-01-08T14:23:18.744Z,8.69
2023-01-08T14:25:51.611Z,8.64
2023-01-08T14:28:22.439Z,8.59
2023-01-08T14:31:00.128Z,8.59
2023-01-08T14:33:33.213Z,8.59
2023-01-08T14:36:01.785Z,8.45
2023-01-08T14:38:28.687Z,8.30
2023-01-08T14:41:14.709Z,8.49
2023-01-08T14:43:45.163Z,8.45
2023-01-08T14:46:24.495Z,8.40
2023-01-08T14:48:55.942Z,8.35
2023-01-08T14:51:30.154Z,8.29
2023-01-08T14:54:06.146Z,8.29
2023-01-08T14:56:36.104Z,8.24
2023-01-08T14:59:12.599Z,8.14
2023-01-08T15:01:40.049Z,8.10
2023-01-08T15:04:18.522Z,8.01
2023-01-08T15:06:46.081Z,8.01
2023-01-08T15:09:30.204Z,7.99
2023-01-08T15:12:02.289Z,7.84
2023-01-08T15:14:31.156Z,7.87
2023-01-08T15:17:05.147Z,7.79
2023-01-08T15:19:38.575Z,7.73
2023-01-08T15:22:05.486Z,7.65
2023-01-08T15:24:39.899Z,7.64
2023-01-08T15:27:10.809Z,7.59
2023-01-08T15:29:40.997Z,7.50
2023-01-08T15:32:14.157Z,7.50
2023-01-08T15:34:45.209Z,7.42
2023-01-08T15:37:14.358Z,7.33
2023-01-08T15:39:42.865Z,7.29
2023-01-08T15:42:46.298Z,7.32
2023-01-08T15:45:17.539Z,7.02
2023-01-08T15:47:44.812Z,7.23
2023-01-08T15:50:14.932Z,7.13
2023-01-08T15:52:43.566Z,7.12
2023-01-08T15:55:17.908Z,7.06
2023-01-08T15:57:45.243Z,6.66
2023-01-08T16:00:14.342Z,7.01
2023-01-08T16:02:52.713Z,6.95
2023-01-08T16:05:21.856Z,6.93
2023-01-08T16:07:49.095Z,6.88
2023-01-08T16:10:17.179Z,6.86
2023-01-08T16:12:44.667Z,6.78
2023-01-08T16:15:13.382Z,6.77
2023-01-08T16:17:41.201Z,6.75
2023-01-08T16:20:09.885Z,6.64
2023-01-08T16:22:36.722Z,6.66
2023-01-08T16:25:04.412Z,6.64
2023-01-08T16:27:32.360Z,6.60
2023-01-08T16:29:59.924Z,6.54
2023-01-08T16:32:26.880Z,6.55
2023-01-08T16:34:55.001Z,6.54
2023-01-08T16:37:22.510Z,6.52
2023-01-08T16:39:49.688Z,6.52
2023-01-08T16:42:16.918Z,6.42
2023-01-08T16:44:43.813Z,6.33
2023-01-08T16:47:10.923Z,6.29
2023-01-08T16:49:37.763Z,6.34
2023-01-08T16:52:09.613Z,6.29
2023-01-08T16:54:37.085Z,6.29
2023-01-08T16:57:05.244Z,6.26
2023-01-08T16:59:33.429Z,6.21
2023-01-08T17:02:00.564Z,6.20
2023-01-08T17:04:29.738Z,6.16
2023-01-08T17:06:57.289Z,5.95
2023-01-08T17:09:25.610Z,5.99
2023-01-08T17:11:52.824Z,6.09
2023-01-08T17:14:20.296Z,6.05
2023-01-08T17:16:49.082Z,6.02
2023-01-08T17:19:17.620Z,6.02
2023-01-08T17:21:46.088Z,5.93
2023-01-08T17:24:13.635Z,5.94
2023-01-08T17:26:40.576Z,5.90
2023-01-08T17:29:08.333Z,5.84
2023-01-08T17:31:40.320Z,5.80
2023-01-08T17:34:11.841Z,5.76
2023-01-08T17:36:39.156Z,5.78
2023-01-08T17:39:11.602Z,5.67
2023-01-08T17:41:57.753Z,5.70
2023-01-08T17:44:26.662Z,5.71
2023-01-08T17:46:53.659Z,5.70
2023-01-08T17:49:21.795Z,5.63
2023-01-08T17:51:48.814Z,5.64
2023-01-08T17:54:17.490Z,5.62
2023-01-08T17:56:44.624Z,5.57
2023-01-08T17:59:17.214Z,5.59
2023-01-08T18:01:45.720Z,5.55
2023-01-08T18:04:16.002Z,5.53
2023-01-08T18:06:43.716Z,5.51
2023-01-08T18:09:12.614Z,5.50
2023-01-08T18:11:43.879Z,5.49
2023-01-08T18:14:14.756Z,5.46
2023-01-08T18:16:45.491Z,5.46
2023-01-08T18:19:14.096Z,5.31
2023-01-08T18:21:47.936Z,5.38
2023-01-08T18:24:17.739Z,5.35
2023-01-08T18:26:46.611Z,5.29
2023-01-08T18:29:16.443Z,5.22
2023-01-08T18:31:46.588Z,5.22
2023-01-08T18:34:15.419Z,5.03
2023-01-08T18:36:42.745Z,4.80
2023-01-08T18:39:11.878Z,5.08
2023-01-08T18:41:57.882Z,5.15
2023-01-08T18:44:26.915Z,5.10
2023-01-08T18:46:54.146Z,5.10
2023-01-08T18:49:21.468Z,5.11
2023-01-08T18:51:48.280Z,5.09
2023-01-08T18:54:15.668Z,5.07
2023-01-08T18:56:42.734Z,5.00
2023-01-08T18:59:10.650Z,4.93
2023-01-08T19:01:39.065Z,5.02
2023-01-08T19:04:06.101Z,5.02
2023-01-08T19:06:33.490Z,4.99
2023-01-08T19:09:00.560Z,4.83
2023-01-08T19:11:27.964Z,4.86
2023-01-08T19:13:56.451Z,4.98
2023-01-08T19:16:23.817Z,4.76
2023-01-08T19:18:51.091Z,4.93
2023-01-08T19:21:19.486Z,4.86
2023-01-08T19:23:47.803Z,4.93
2023-01-08T19:26:15.752Z,4.94
2023-01-08T19:28:43.240Z,4.93
2023-01-08T19:31:16.308Z,4.93
2023-01-08T19:33:46.033Z,4.88
2023-01-08T19:36:16.089Z,4.87
2023-01-08T19:38:43.778Z,4.85
2023-01-08T19:41:30.304Z,4.81
2023-01-08T19:43:57.872Z,4.67
2023-01-08T19:46:25.001Z,4.80
2023-01-08T19:48:53.129Z,4.74
2023-01-08T19:51:20.106Z,4.72
2023-01-08T19:53:47.117Z,4.71
2023-01-08T19:56:15.023Z,4.69
2023-01-08T19:58:42.843Z,4.52
2023-01-08T20:01:15.392Z,4.66
2023-01-08T20:03:43.510Z,4.63
2023-01-08T20:06:16.347Z,4.53
2023-01-08T20:08:46.257Z,4.60
2023-01-08T20:11:14.983Z,4.56
2023-01-08T20:13:44.250Z,4.57
2023-01-08T20:16:13.830Z,4.56
2023-01-08T20:18:41.524Z,4.53
2023-01-08T20:21:18.505Z,4.41
2023-01-08T20:23:45.494Z,4.51
2023-01-08T20:26:17.822Z,4.49
2023-01-08T20:28:46.148Z,4.46
2023-01-08T20:31:18.931Z,4.45
2023-01-08T20:33:46.289Z,4.43
2023-01-08T20:36:18.704Z,4.44
2023-01-08T20:38:46.574Z,4.40
2023-01-08T20:41:13.544Z,3.54
2023-01-08T20:43:40.959Z,4.33
2023-01-08T20:46:14.082Z,4.32
2023-01-08T20:48:47.845Z,4.16
2023-01-08T20:51:16.643Z,4.24
2023-01-08T20:53:43.569Z,4.14
2023-01-08T20:56:12.711Z,4.28
2023-01-08T20:58:45.994Z,4.31
2023-01-08T21:01:19.537Z,4.23
2023-01-08T21:03:48.562Z,4.24
2023-01-08T21:06:18.269Z,4.23
2023-01-08T21:08:47.005Z,4.23
2023-01-08T21:11:14.805Z,4.19
2023-01-08T21:13:42.410Z,4.09
2023-01-08T21:16:13.691Z,4.17
2023-01-08T21:18:47.446Z,4.16
2023-01-08T21:21:24.018Z,4.01
2023-01-08T21:23:51.538Z,4.08
2023-01-08T21:26:19.240Z,3.93
2023-01-08T21:28:46.960Z,4.08
2023-01-08T21:31:17.215Z,4.05
2023-01-08T21:33:48.473Z,4.06
2023-01-08T21:36:19.473Z,4.04
2023-01-08T21:38:46.749Z,3.95
2023-01-08T21:41:38.326Z,4.00
2023-01-08T21:44:29.013Z,3.96
2023-01-08T21:46:58.360Z,3.81
2023-01-08T21:49:25.429Z,3.95
2023-01-08T21:52:11.151Z,3.89
2023-01-08T21:54:41.253Z,3.85
2023-01-08T21:57:09.307Z,3.86
2023-01-08T21:59:36.810Z,3.72
2023-01-08T22:02:05.352Z,3.86
2023-01-08T22:04:32.747Z,3.85
2023-01-08T22:06:59.689Z,3.86
2023-01-08T22:09:26.579Z,3.71
2023-01-08T22:11:56.005Z,3.80
2023-01-08T22:14:23.296Z,3.79
2023-01-08T22:16:50.340Z,3.78
2023-01-08T22:19:17.618Z,3.75
2023-01-08T22:21:45.039Z,3.74
2023-01-08T22:24:12.216Z,3.72
2023-01-08T22:26:39.311Z,3.67
2023-01-08T22:29:06.616Z,3.62
2023-01-08T22:31:34.023Z,3.50
2023-01-08T22:34:01.260Z,3.68
2023-01-08T22:36:28.284Z,3.65
2023-01-08T22:38:55.337Z,3.67
2023-01-08T22:41:24.635Z,3.64
2023-01-08T22:43:58.398Z,3.62
2023-01-08T22:46:25.751Z,3.47
2023-01-08T22:48:52.984Z,3.47
2023-01-08T22:51:29.613Z,3.48
2023-01-08T22:53:58.412Z,3.47
2023-01-08T22:56:26.585Z,3.36
2023-01-08T22:58:54.522Z,3.45
2023-01-08T23:01:24.688Z,3.38
2023-01-08T23:03:53.535Z,3.39
2023-01-08T23:06:25.629Z,3.40
2023-01-08T23:08:52.708Z,3.33
2023-01-08T23:11:21.042Z,3.37
2023-01-08T23:13:48.647Z,3.21
2023-01-08T23:16:17.988Z,3.32
2023-01-08T23:18:44.846Z,3.26
2023-01-08T23:21:17.498Z,3.19
2023-01-08T23:23:45.152Z,3.13
2023-01-08T23:26:23.022Z,3.16
2023-01-08T23:28:50.898Z,3.18
2023-01-08T23:31:22.368Z,3.16
2023-01-08T23:54:33.314Z,3.64
2023-01-08T23:57:00.372Z,3.51
2023-01-08T23:59:27.572Z,3.43
